sensor_id;sensor_type;location;lat;lon;timestamp;pressure;altitude;pressure_sealevel;temperature;humidity
19831;BME280;10076;52.008;4.708;2023-02-10T00:00:18;103576.56;;;4.33;100.00
19831;BME280;10076;52.008;4.708;2023-02-10T00:02:44;103580.94;;;4.29;100.00
19831;BME280;10076;52.008;4.708;2023-02-10T00:05:09;103579.19;;;4.24;100.00
19831;BME280;10076;52.008;4.708;2023-02-10T00:07:34;103587.03;;;4.13;100.00
19831;BME280;10076;52.008;4.708;2023-02-10T00:09:59;103584.44;;;4.15;100.00
19831;BME280;10076;52.008;4.708;2023-02-10T00:12:25;103582.69;;;4.26;100.00
19831;BME280;10076;52.008;4.708;2023-02-10T00:14:50;103576.56;;;4.33;100.00
19831;BME280;10076;52.008;4.708;2023-02-10T00:17:15;103571.31;;;4.36;100.00
19831;BME280;10076;52.008;4.708;2023-02-10T00:19:42;103568.69;;;4.31;100.00
19831;BME280;10076;52.008;4.708;2023-02-10T00:22:07;103579.19;;;4.27;100.00
19831;BME280;10076;52.008;4.708;2023-02-10T00:24:33;103575.69;;;4.29;100.00
19831;BME280;10076;52.008;4.708;2023-02-10T00:26:58;103574.78;;;4.30;100.00
19831;BME280;10076;52.008;4.708;2023-02-10T00:29:25;103575.66;;;4.34;100.00
19831;BME280;10076;52.008;4.708;2023-02-10T00:31:50;103579.19;;;4.33;100.00
19831;BME280;10076;52.008;4.708;2023-02-10T00:34:17;103571.31;;;4.42;100.00
19831;BME280;10076;52.008;4.708;2023-02-10T00:36:42;103564.34;;;4.44;100.00
19831;BME280;10076;52.008;4.708;2023-02-10T00:39:15;103563.50;;;4.33;100.00
19831;BME280;10076;52.008;4.708;2023-02-10T00:41:40;103567.84;;;4.26;100.00
19831;BME280;10076;52.008;4.708;2023-02-10T00:44:06;103566.97;;;4.44;100.00
19831;BME280;10076;52.008;4.708;2023-02-10T00:46:31;103575.66;;;4.47;100.00
19831;BME280;10076;52.008;4.708;2023-02-10T00:48:57;103570.44;;;4.47;100.00
19831;BME280;10076;52.008;4.708;2023-02-10T00:51:23;103567.78;;;4.58;100.00
19831;BME280;10076;52.008;4.708;2023-02-10T00:53:48;103571.28;;;4.51;100.00
19831;BME280;10076;52.008;4.708;2023-02-10T00:56:17;103571.34;;;4.28;100.00
19831;BME280;10076;52.008;4.708;2023-02-10T00:58:42;103577.38;;;4.48;100.00
19831;BME280;10076;52.008;4.708;2023-02-10T01:01:07;103578.28;;;4.40;100.00
19831;BME280;10076;52.008;4.708;2023-02-10T01:03:33;103586.13;;;4.43;100.00
19831;BME280;10076;52.008;4.708;2023-02-10T01:05:59;103580.00;;;4.42;100.00
19831;BME280;10076;52.008;4.708;2023-02-10T01:08:25;103581.75;;;4.52;100.00
19831;BME280;10076;52.008;4.708;2023-02-10T01:10:58;103582.66;;;4.44;100.00
19831;BME280;10076;52.008;4.708;2023-02-10T01:13:23;103585.25;;;4.47;100.00
19831;BME280;10076;52.008;4.708;2023-02-10T01:15:49;103587.00;;;4.45;100.00
19831;BME280;10076;52.008;4.708;2023-02-10T01:18:14;103580.88;;;4.46;100.00
19831;BME280;10076;52.008;4.708;2023-02-10T01:20:41;103578.28;;;4.44;100.00
19831;BME280;10076;52.008;4.708;2023-02-10T01:23:07;103587.00;;;4.40;100.00
19831;BME280;10076;52.008;4.708;2023-02-10T01:25:33;103581.75;;;4.49;100.00
19831;BME280;10076;52.008;4.708;2023-02-10T01:27:59;103583.50;;;4.46;100.00
19831;BME280;10076;52.008;4.708;2023-02-10T01:30:25;103575.69;;;4.37;100.00
19831;BME280;10076;52.008;4.708;2023-02-10T01:32:52;103583.53;;;4.37;100.00
19831;BME280;10076;52.008;4.708;2023-02-10T01:35:18;103597.47;;;4.39;100.00
19831;BME280;10076;52.008;4.708;2023-02-10T01:37:44;103588.75;;;4.32;100.00
19831;BME280;10076;52.008;4.708;2023-02-10T01:40:09;103596.63;;;4.31;100.00
19831;BME280;10076;52.008;4.708;2023-02-10T01:42:35;103601.81;;;4.28;100.00
19831;BME280;10076;52.008;4.708;2023-02-10T01:45:13;103596.63;;;4.25;100.00
19831;BME280;10076;52.008;4.708;2023-02-10T01:47:40;103592.25;;;4.28;100.00
19831;BME280;10076;52.008;4.708;2023-02-10T01:50:07;103598.34;;;4.38;100.00
19831;BME280;10076;52.008;4.708;2023-02-10T01:52:33;103601.84;;;4.37;100.00
19831;BME280;10076;52.008;4.708;2023-02-10T01:55:23;103598.34;;;4.32;100.00
19831;BME280;10076;52.008;4.708;2023-02-10T01:57:50;103604.47;;;4.29;100.00
19831;BME280;10076;52.008;4.708;2023-02-10T02:00:20;103605.34;;;4.24;100.00
19831;BME280;10076;52.008;4.708;2023-02-10T02:02:50;103599.25;;;4.23;100.00
19831;BME280;10076;52.008;4.708;2023-02-10T02:05:20;103603.59;;;4.17;100.00
19831;BME280;10076;52.008;4.708;2023-02-10T02:07:46;103597.50;;;4.15;100.00
19831;BME280;10076;52.008;4.708;2023-02-10T02:10:13;103595.75;;;4.17;100.00
19831;BME280;10076;52.008;4.708;2023-02-10T02:13:04;103593.13;;;4.21;100.00
19831;BME280;10076;52.008;4.708;2023-02-10T02:15:40;103589.63;;;4.13;100.00
19831;BME280;10076;52.008;4.708;2023-02-10T02:18:40;103590.53;;;4.20;100.00
19831;BME280;10076;52.008;4.708;2023-02-10T02:31:51;103589.66;;;4.27;100.00
19831;BME280;10076;52.008;4.708;2023-02-10T02:34:36;103598.34;;;4.17;100.00
19831;BME280;10076;52.008;4.708;2023-02-10T02:37:41;103606.22;;;4.14;100.00
19831;BME280;10076;52.008;4.708;2023-02-10T02:40:10;103610.56;;;4.18;100.00
19831;BME280;10076;52.008;4.708;2023-02-10T02:42:36;103617.53;;;4.19;100.00
19831;BME280;10076;52.008;4.708;2023-02-10T02:45:07;103620.13;;;4.28;100.00
19831;BME280;10076;52.008;4.708;2023-02-10T02:52:58;103626.25;;;4.30;100.00
19831;BME280;10076;52.008;4.708;2023-02-10T02:58:20;103628.84;;;4.31;100.00
19831;BME280;10076;52.008;4.708;2023-02-10T03:00:48;103616.69;;;4.26;100.00
19831;BME280;10076;52.008;4.708;2023-02-10T03:03:15;103617.53;;;4.25;100.00
19831;BME280;10076;52.008;4.708;2023-02-10T03:05:41;103628.84;;;4.19;100.00
19831;BME280;10076;52.008;4.708;2023-02-10T03:08:07;103631.47;;;4.12;100.00
19831;BME280;10076;52.008;4.708;2023-02-10T03:10:32;103619.28;;;4.05;100.00
19831;BME280;10076;52.008;4.708;2023-02-10T03:12:57;103621.88;;;3.87;100.00
19831;BME280;10076;52.008;4.708;2023-02-10T03:15:23;103625.38;;;3.83;100.00
19831;BME280;10076;52.008;4.708;2023-02-10T03:17:48;103634.06;;;3.82;100.00
19831;BME280;10076;52.008;4.708;2023-02-10T03:20:13;103635.81;;;3.79;100.00
19831;BME280;10076;52.008;4.708;2023-02-10T03:22:41;103632.34;;;3.93;100.00
19831;BME280;10076;52.008;4.708;2023-02-10T03:25:06;103626.25;;;4.03;100.00
19831;BME280;10076;52.008;4.708;2023-02-10T03:27:32;103627.09;;;3.74;100.00
19831;BME280;10076;52.008;4.708;2023-02-10T03:29:57;103626.22;;;3.82;100.00
19831;BME280;10076;52.008;4.708;2023-02-10T03:32:22;103621.84;;;3.68;100.00
19831;BME280;10076;52.008;4.708;2023-02-10T03:34:48;103627.06;;;3.68;100.00
19831;BME280;10076;52.008;4.708;2023-02-10T03:37:13;103630.59;;;3.74;100.00
19831;BME280;10076;52.008;4.708;2023-02-10T03:39:38;103627.97;;;3.77;100.00
19831;BME280;10076;52.008;4.708;2023-02-10T03:42:04;103630.59;;;3.83;100.00
19831;BME280;10076;52.008;4.708;2023-02-10T03:44:30;103627.13;;;3.96;100.00
19831;BME280;10076;52.008;4.708;2023-02-10T03:46:55;103627.97;;;3.76;100.00
19831;BME280;10076;52.008;4.708;2023-02-10T03:49:21;103621.88;;;3.71;100.00
19831;BME280;10076;52.008;4.708;2023-02-10T03:51:46;103627.13;;;3.75;100.00
19831;BME280;10076;52.008;4.708;2023-02-10T03:54:12;103626.19;;;3.61;100.00
19831;BME280;10076;52.008;4.708;2023-02-10T03:56:37;103624.47;;;3.66;100.00
19831;BME280;10076;52.008;4.708;2023-02-10T03:59:03;103625.34;;;3.68;100.00
19831;BME280;10076;52.008;4.708;2023-02-10T04:01:29;103619.25;;;3.74;100.00
19831;BME280;10076;52.008;4.708;2023-02-10T04:03:54;103621.00;;;3.82;100.00
19831;BME280;10076;52.008;4.708;2023-02-10T04:06:19;103625.34;;;3.73;100.00
19831;BME280;10076;52.008;4.708;2023-02-10T04:08:46;103625.31;;;3.49;100.00
19831;BME280;10076;52.008;4.708;2023-02-10T04:11:12;103632.25;;;3.45;100.00
19831;BME280;10076;52.008;4.708;2023-02-10T04:13:38;103636.59;;;3.43;100.00
19831;BME280;10076;52.008;4.708;2023-02-10T04:16:12;103642.69;;;3.42;100.00
19831;BME280;10076;52.008;4.708;2023-02-10T04:18:38;103638.38;;;3.56;100.00
19831;BME280;10076;52.008;4.708;2023-02-10T04:21:04;103643.59;;;3.53;100.00
19831;BME280;10076;52.008;4.708;2023-02-10T04:23:30;103637.50;;;3.53;100.00
19831;BME280;10076;52.008;4.708;2023-02-10T04:25:56;103639.28;;;3.66;100.00
19831;BME280;10076;52.008;4.708;2023-02-10T04:28:21;103638.38;;;3.50;100.00
19831;BME280;10076;52.008;4.708;2023-02-10T04:30:50;103641.81;;;3.38;100.00
19831;BME280;10076;52.008;4.708;2023-02-10T04:33:16;103643.50;;;3.30;100.00
19831;BME280;10076;52.008;4.708;2023-02-10T04:35:41;103654.81;;;3.24;100.00
19831;BME280;10076;52.008;4.708;2023-02-10T04:38:09;103647.00;;;3.32;100.00
19831;BME280;10076;52.008;4.708;2023-02-10T04:40:34;103652.19;;;3.27;100.00
19831;BME280;10076;52.008;4.708;2023-02-10T04:42:59;103644.41;;;3.29;100.00
19831;BME280;10076;52.008;4.708;2023-02-10T04:45:25;103629.59;;;3.31;100.00
19831;BME280;10076;52.008;4.708;2023-02-10T04:47:50;103633.94;;;3.30;100.00
19831;BME280;10076;52.008;4.708;2023-02-10T04:50:15;103636.59;;;3.41;100.00
19831;BME280;10076;52.008;4.708;2023-02-10T04:52:41;103636.59;;;3.38;100.00
19831;BME280;10076;52.008;4.708;2023-02-10T04:55:06;103634.84;;;3.34;100.00
19831;BME280;10076;52.008;4.708;2023-02-10T04:57:32;103643.56;;;3.39;100.00
19831;BME280;10076;52.008;4.708;2023-02-10T04:59:57;103630.47;;;3.33;100.00
19831;BME280;10076;52.008;4.708;2023-02-10T05:02:22;103631.34;;;3.29;100.00
19831;BME280;10076;52.008;4.708;2023-02-10T05:04:47;103634.00;;;3.45;100.00
19831;BME280;10076;52.008;4.708;2023-02-10T05:07:13;103627.00;;;3.34;100.00
19831;BME280;10076;52.008;4.708;2023-02-10T05:09:38;103629.56;;;3.14;100.00
19831;BME280;10076;52.008;4.708;2023-02-10T05:12:03;103622.59;;;3.12;100.00
19831;BME280;10076;52.008;4.708;2023-02-10T05:14:29;103625.22;;;3.30;100.00
19831;BME280;10076;52.008;4.708;2023-02-10T05:16:54;103636.56;;;3.29;100.00
19831;BME280;10076;52.008;4.708;2023-02-10T05:19:19;103633.94;;;3.32;100.00
19831;BME280;10076;52.008;4.708;2023-02-10T05:21:45;103634.81;;;3.26;100.00
19831;BME280;10076;52.008;4.708;2023-02-10T05:24:10;103637.44;;;3.28;100.00
19831;BME280;10076;52.008;4.708;2023-02-10T05:26:35;103629.66;;;3.45;100.00
19831;BME280;10076;52.008;4.708;2023-02-10T05:29:01;103628.69;;;3.27;100.00
19831;BME280;10076;52.008;4.708;2023-02-10T05:31:26;103632.25;;;3.47;100.00
19831;BME280;10076;52.008;4.708;2023-02-10T05:33:52;103641.00;;;3.56;100.00
19831;BME280;10076;52.008;4.708;2023-02-10T05:36:18;103641.00;;;3.58;100.00
19831;BME280;10076;52.008;4.708;2023-02-10T05:38:44;103647.94;;;3.48;100.00
19831;BME280;10076;52.008;4.708;2023-02-10T05:41:29;103645.31;;;3.47;100.00
19831;BME280;10076;52.008;4.708;2023-02-10T05:43:54;103641.81;;;3.42;100.00
19831;BME280;10076;52.008;4.708;2023-02-10T05:46:20;103637.41;;;3.22;100.00
19831;BME280;10076;52.008;4.708;2023-02-10T05:48:45;103623.47;;;3.17;100.00
19831;BME280;10076;52.008;4.708;2023-02-10T05:51:10;103620.84;;;3.20;100.00
19831;BME280;10076;52.008;4.708;2023-02-10T05:53:36;103626.88;;;3.05;100.00
19831;BME280;10076;52.008;4.708;2023-02-10T05:56:01;103619.97;;;3.13;100.00
19831;BME280;10076;52.008;4.708;2023-02-10T05:58:26;103614.78;;;3.25;100.00
19831;BME280;10076;52.008;4.708;2023-02-10T06:00:53;103613.03;;;3.18;100.00
19831;BME280;10076;52.008;4.708;2023-02-10T06:03:18;103622.50;;;2.94;100.00
19831;BME280;10076;52.008;4.708;2023-02-10T06:05:43;103624.34;;;3.20;100.00
19831;BME280;10076;52.008;4.708;2023-02-10T06:08:10;103645.97;;;2.98;100.00
19831;BME280;10076;52.008;4.708;2023-02-10T06:10:36;103652.09;;;3.02;100.00
19831;BME280;10076;52.008;4.708;2023-02-10T06:13:01;103645.09;;;2.92;100.00
19831;BME280;10076;52.008;4.708;2023-02-10T06:15:26;103641.63;;;2.93;100.00
19831;BME280;10076;52.008;4.708;2023-02-10T06:17:51;103646.72;;;2.75;100.00
19831;BME280;10076;52.008;4.708;2023-02-10T06:20:17;103651.00;;;2.63;100.00
19831;BME280;10076;52.008;4.708;2023-02-10T06:22:42;103651.88;;;2.62;100.00
19831;BME280;10076;52.008;4.708;2023-02-10T06:25:08;103653.59;;;2.58;100.00
19831;BME280;10076;52.008;4.708;2023-02-10T06:27:33;103652.78;;;2.67;100.00
19831;BME280;10076;52.008;4.708;2023-02-10T06:29:58;103662.28;;;2.60;100.00
19831;BME280;10076;52.008;4.708;2023-02-10T06:32:23;103663.06;;;2.52;100.00
19831;BME280;10076;52.008;4.708;2023-02-10T06:34:49;103672.75;;;2.65;100.00
19831;BME280;10076;52.008;4.708;2023-02-10T06:37:14;103680.56;;;2.63;100.00
19831;BME280;10076;52.008;4.708;2023-02-10T06:39:39;103689.34;;;2.75;100.00
19831;BME280;10076;52.008;4.708;2023-02-10T06:42:05;103682.44;;;2.82;100.00
19831;BME280;10076;52.008;4.708;2023-02-10T06:44:31;103682.38;;;2.74;100.00
19831;BME280;10076;52.008;4.708;2023-02-10T06:46:56;103676.31;;;2.80;100.00
19831;BME280;10076;52.008;4.708;2023-02-10T06:49:21;103680.56;;;2.62;100.00
19831;BME280;10076;52.008;4.708;2023-02-10T06:51:47;103681.41;;;2.62;100.00
19831;BME280;10076;52.008;4.708;2023-02-10T06:54:12;103680.53;;;2.54;100.00
19831;BME280;10076;52.008;4.708;2023-02-10T06:56:37;103680.47;;;2.53;100.00
19831;BME280;10076;52.008;4.708;2023-02-10T06:59:04;103679.66;;;2.60;100.00
19831;BME280;10076;52.008;4.708;2023-02-10T07:01:30;103663.25;;;2.71;100.00
19831;BME280;10076;52.008;4.708;2023-02-10T07:03:55;103662.47;;;2.87;100.00
19831;BME280;10076;52.008;4.708;2023-02-10T07:06:20;103658.91;;;2.76;100.00
19831;BME280;10076;52.008;4.708;2023-02-10T07:08:46;103652.00;;;2.81;100.00
19831;BME280;10076;52.008;4.708;2023-02-10T07:11:11;103663.28;;;2.77;100.00
19831;BME280;10076;52.008;4.708;2023-02-10T07:13:36;103661.63;;;2.98;100.00
19831;BME280;10076;52.008;4.708;2023-02-10T07:16:02;103667.69;;;2.87;100.00
19831;BME280;10076;52.008;4.708;2023-02-10T07:18:27;103672.91;;;2.90;100.00
19831;BME280;10076;52.008;4.708;2023-02-10T07:20:55;103668.47;;;2.74;100.00
19831;BME280;10076;52.008;4.708;2023-02-10T07:23:20;103680.59;;;2.72;100.00
19831;BME280;10076;52.008;4.708;2023-02-10T07:25:46;103677.09;;;2.67;100.00
19831;BME280;10076;52.008;4.708;2023-02-10T07:28:11;103686.72;;;2.74;100.00
19831;BME280;10076;52.008;4.708;2023-02-10T07:30:36;103680.59;;;2.72;100.00
19831;BME280;10076;52.008;4.708;2023-02-10T07:33:02;103697.16;;;2.71;100.00
19831;BME280;10076;52.008;4.708;2023-02-10T07:35:28;103714.59;;;2.84;100.00
19831;BME280;10076;52.008;4.708;2023-02-10T07:37:53;103721.59;;;2.85;100.00
19831;BME280;10076;52.008;4.708;2023-02-10T07:40:19;103725.09;;;2.90;100.00
19831;BME280;10076;52.008;4.708;2023-02-10T07:42:44;103723.28;;;2.78;100.00
19831;BME280;10076;52.008;4.708;2023-02-10T07:45:09;103717.31;;;2.93;100.00
19831;BME280;10076;52.008;4.708;2023-02-10T07:47:35;103709.34;;;2.78;100.00
19831;BME280;10076;52.008;4.708;2023-02-10T07:50:02;103700.56;;;2.64;100.00
19831;BME280;10076;52.008;4.708;2023-02-10T07:52:27;103708.50;;;2.76;100.00
19831;BME280;10076;52.008;4.708;2023-02-10T07:54:52;103711.13;;;2.82;100.00
19831;BME280;10076;52.008;4.708;2023-02-10T07:57:18;103709.44;;;2.90;100.00
19831;BME280;10076;52.008;4.708;2023-02-10T07:59:43;103712.06;;;2.91;100.00
19831;BME280;10076;52.008;4.708;2023-02-10T08:02:10;103719.91;;;2.93;100.00
19831;BME280;10076;52.008;4.708;2023-02-10T08:04:36;103721.75;;;3.07;100.00
19831;BME280;10076;52.008;4.708;2023-02-10T08:07:01;103723.38;;;2.90;100.00
19831;BME280;10076;52.008;4.708;2023-02-10T08:09:26;103727.69;;;2.90;100.00
19831;BME280;10076;52.008;4.708;2023-02-10T08:11:51;103721.69;;;3.04;100.00
19831;BME280;10076;52.008;4.708;2023-02-10T08:14:17;103730.34;;;2.96;100.00
19831;BME280;10076;52.008;4.708;2023-02-10T08:16:42;103736.38;;;2.87;100.00
19831;BME280;10076;52.008;4.708;2023-02-10T08:19:07;103737.34;;;3.01;100.00
19831;BME280;10076;52.008;4.708;2023-02-10T08:21:33;103727.81;;;3.09;100.00
19831;BME280;10076;52.008;4.708;2023-02-10T08:23:58;103721.63;;;2.91;100.00
19831;BME280;10076;52.008;4.708;2023-02-10T08:26:24;103727.69;;;2.90;100.00
19831;BME280;10076;52.008;4.708;2023-02-10T08:28:50;103733.84;;;3.01;100.00
19831;BME280;10076;52.008;4.708;2023-02-10T08:31:16;103727.72;;;2.91;100.00
19831;BME280;10076;52.008;4.708;2023-02-10T08:33:42;103728.72;;;3.10;100.00
19831;BME280;10076;52.008;4.708;2023-02-10T08:36:10;103730.53;;;3.23;100.00
19831;BME280;10076;52.008;4.708;2023-02-10T08:38:37;103720.16;;;3.35;100.00
19831;BME280;10076;52.008;4.708;2023-02-10T08:41:02;103718.28;;;3.13;100.00
19831;BME280;10076;52.008;4.708;2023-02-10T08:43:27;103724.44;;;3.28;100.00
19831;BME280;10076;52.008;4.708;2023-02-10T08:45:58;103719.25;;;3.34;100.00
19831;BME280;10076;52.008;4.708;2023-02-10T08:48:23;103728.03;;;3.49;100.00
19831;BME280;10076;52.008;4.708;2023-02-10T08:50:49;103730.66;;;3.52;100.00
19831;BME280;10076;52.008;4.708;2023-02-10T08:53:15;103715.09;;;3.78;100.00
19831;BME280;10076;52.008;4.708;2023-02-10T08:55:40;103721.09;;;3.62;100.00
19831;BME280;10076;52.008;4.708;2023-02-10T08:58:06;103726.41;;;3.77;100.00
19831;BME280;10076;52.008;4.708;2023-02-10T09:00:31;103728.19;;;3.84;100.00
19831;BME280;10076;52.008;4.708;2023-02-10T09:02:57;103729.00;;;3.80;100.00
19831;BME280;10076;52.008;4.708;2023-02-10T09:05:22;103740.34;;;3.80;100.00
19831;BME280;10076;52.008;4.708;2023-02-10T09:07:48;103730.78;;;3.94;100.00
19831;BME280;10076;52.008;4.708;2023-02-10T09:10:14;103733.44;;;4.12;100.00
19831;BME280;10076;52.008;4.708;2023-02-10T09:12:39;103736.09;;;4.16;100.00
19831;BME280;10076;52.008;4.708;2023-02-10T09:15:06;103741.34;;;4.42;100.00
19831;BME280;10076;52.008;4.708;2023-02-10T09:17:31;103740.47;;;4.47;100.00
19831;BME280;10076;52.008;4.708;2023-02-10T09:19:57;103743.97;;;4.64;100.00
19831;BME280;10076;52.008;4.708;2023-02-10T09:22:22;103738.72;;;4.88;100.00
19831;BME280;10076;52.008;4.708;2023-02-10T09:24:48;103743.09;;;4.80;100.00
19831;BME280;10076;52.008;4.708;2023-02-10T09:27:16;103744.81;;;4.82;100.00
19831;BME280;10076;52.008;4.708;2023-02-10T09:29:41;103747.44;;;4.82;100.00
19831;BME280;10076;52.008;4.708;2023-02-10T09:32:07;103749.13;;;5.15;100.00
19831;BME280;10076;52.008;4.708;2023-02-10T09:34:32;103756.09;;;5.20;100.00
19831;BME280;10076;52.008;4.708;2023-02-10T09:36:57;103752.56;;;5.29;100.00
19831;BME280;10076;52.008;4.708;2023-02-10T09:39:26;103737.72;;;5.32;100.00
19831;BME280;10076;52.008;4.708;2023-02-10T09:42:01;103747.28;;;5.51;100.00
19831;BME280;10076;52.008;4.708;2023-02-10T09:44:33;103753.38;;;5.56;100.00
19831;BME280;10076;52.008;4.708;2023-02-10T09:50:26;103745.44;;;5.72;100.00
19831;BME280;10076;52.008;4.708;2023-02-10T09:53:18;103747.13;;;5.93;100.00
19831;BME280;10076;52.008;4.708;2023-02-10T09:58:26;103746.19;;;5.98;100.00
19831;BME280;10076;52.008;4.708;2023-02-10T10:01:22;103756.56;;;6.20;100.00
19831;BME280;10076;52.008;4.708;2023-02-10T10:04:03;103745.28;;;6.10;100.00
19831;BME280;10076;52.008;4.708;2023-02-10T10:06:34;103739.00;;;6.27;100.00
19831;BME280;10076;52.008;4.708;2023-02-10T10:11:43;103743.22;;;6.52;100.00
19831;BME280;10076;52.008;4.708;2023-02-10T10:14:23;103737.41;;;7.11;100.00
19831;BME280;10076;52.008;4.708;2023-02-10T10:16:59;103743.19;;;7.42;100.00
19831;BME280;10076;52.008;4.708;2023-02-10T10:19:57;103741.13;;;7.67;100.00
19831;BME280;10076;52.008;4.708;2023-02-10T10:30:18;103724.47;;;8.30;100.00
19831;BME280;10076;52.008;4.708;2023-02-10T10:32:45;103723.06;;;9.10;100.00
19831;BME280;10076;52.008;4.708;2023-02-10T10:35:20;103727.75;;;9.81;100.00
19831;BME280;10076;52.008;4.708;2023-02-10T10:37:47;103724.50;;;10.80;100.00
19831;BME280;10076;52.008;4.708;2023-02-10T10:40:19;103715.00;;;11.35;100.00
19831;BME280;10076;52.008;4.708;2023-02-10T10:42:49;103717.19;;;11.82;100.00
19831;BME280;10076;52.008;4.708;2023-02-10T10:45:20;103725.00;;;12.41;100.00
19831;BME280;10076;52.008;4.708;2023-02-10T10:47:51;103716.03;;;12.97;100.00
19831;BME280;10076;52.008;4.708;2023-02-10T10:50:21;103725.59;;;13.49;100.00
19831;BME280;10076;52.008;4.708;2023-02-10T10:52:52;103728.25;;;13.72;100.00
19831;BME280;10076;52.008;4.708;2023-02-10T10:55:22;103713.34;;;14.14;100.00
19831;BME280;10076;52.008;4.708;2023-02-10T10:57:51;103715.44;;;14.49;100.00
19831;BME280;10076;52.008;4.708;2023-02-10T11:00:26;103716.88;;;14.36;100.00
19831;BME280;10076;52.008;4.708;2023-02-10T11:05:21;103722.09;;;15.19;100.00
19831;BME280;10076;52.008;4.708;2023-02-10T11:07:49;103715.44;;;15.29;100.00
19831;BME280;10076;52.008;4.708;2023-02-10T11:10:27;103711.59;;;15.55;100.00
19831;BME280;10076;52.008;4.708;2023-02-10T11:12:53;103708.97;;;15.91;100.00
19831;BME280;10076;52.008;4.708;2023-02-10T11:15:30;103708.81;;;15.94;100.00
19831;BME280;10076;52.008;4.708;2023-02-10T11:17:57;103712.13;;;15.81;100.00
19831;BME280;10076;52.008;4.708;2023-02-10T11:20:27;103708.53;;;16.54;100.00
19831;BME280;10076;52.008;4.708;2023-02-10T11:23:17;103710.19;;;16.90;100.00
19831;BME280;10076;52.008;4.708;2023-02-10T11:25:46;103702.19;;;16.21;100.00
19831;BME280;10076;52.008;4.708;2023-02-10T11:28:20;103697.56;;;15.51;100.00
19831;BME280;10076;52.008;4.708;2023-02-10T11:30:53;103694.00;;;14.73;100.00
19831;BME280;10076;52.008;4.708;2023-02-10T11:33:22;103685.00;;;15.15;100.00
19831;BME280;10076;52.008;4.708;2023-02-10T11:35:53;103680.81;;;15.68;100.00
19831;BME280;10076;52.008;4.708;2023-02-10T11:38:23;103689.50;;;16.08;100.00
19831;BME280;10076;52.008;4.708;2023-02-10T11:43:16;103680.91;;;16.89;100.00
19831;BME280;10076;52.008;4.708;2023-02-10T11:45:52;103687.94;;;17.40;100.00
19831;BME280;10076;52.008;4.708;2023-02-10T11:48:20;103684.19;;;17.28;100.00
19831;BME280;10076;52.008;4.708;2023-02-10T11:50:46;103688.19;;;17.99;100.00
19831;BME280;10076;52.008;4.708;2023-02-10T11:53:25;103684.66;;;19.31;100.00
19831;BME280;10076;52.008;4.708;2023-02-10T11:59:02;103687.84;;;18.65;100.00
19831;BME280;10076;52.008;4.708;2023-02-10T12:04:18;103674.66;;;17.87;100.00
19831;BME280;10076;52.008;4.708;2023-02-10T12:07:01;103667.22;;;17.76;100.00
19831;BME280;10076;52.008;4.708;2023-02-10T12:20:41;103668.06;;;18.07;100.00
19831;BME280;10076;52.008;4.708;2023-02-10T12:23:36;103674.38;;;18.67;100.00
19831;BME280;10076;52.008;4.708;2023-02-10T12:32:05;103663.41;;;18.11;100.00
19831;BME280;10076;52.008;4.708;2023-02-10T12:43:19;103656.38;;;21.11;99.55
19831;BME280;10076;52.008;4.708;2023-02-10T12:46:05;103654.31;;;21.40;97.23
19831;BME280;10076;52.008;4.708;2023-02-10T12:48:40;103651.06;;;21.72;94.46
19831;BME280;10076;52.008;4.708;2023-02-10T12:57:08;103646.16;;;19.18;100.00
19831;BME280;10076;52.008;4.708;2023-02-10T13:02:14;103632.75;;;19.60;100.00
19831;BME280;10076;52.008;4.708;2023-02-10T13:04:44;103625.00;;;19.00;100.00
19831;BME280;10076;52.008;4.708;2023-02-10T13:07:23;103628.09;;;19.08;100.00
19831;BME280;10076;52.008;4.708;2023-02-10T13:09:59;103618.81;;;19.27;100.00
19831;BME280;10076;52.008;4.708;2023-02-10T13:12:31;103614.94;;;19.59;100.00
19831;BME280;10076;52.008;4.708;2023-02-10T13:15:23;103604.94;;;20.15;97.54
19831;BME280;10076;52.008;4.708;2023-02-10T13:17:50;103610.94;;;19.92;98.89
19831;BME280;10076;52.008;4.708;2023-02-10T13:28:23;103591.66;;;18.19;100.00
19831;BME280;10076;52.008;4.708;2023-02-10T13:31:04;103591.94;;;17.53;100.00
19831;BME280;10076;52.008;4.708;2023-02-10T13:34:01;103602.34;;;18.03;100.00
19831;BME280;10076;52.008;4.708;2023-02-10T13:36:30;103582.91;;;18.31;100.00
19831;BME280;10076;52.008;4.708;2023-02-10T13:39:00;103581.56;;;17.93;100.00
19831;BME280;10076;52.008;4.708;2023-02-10T13:41:32;103585.97;;;17.48;100.00
19831;BME280;10076;52.008;4.708;2023-02-10T13:44:26;103564.25;;;16.06;100.00
19831;BME280;10076;52.008;4.708;2023-02-10T13:47:13;103572.56;;;16.53;100.00
19831;BME280;10076;52.008;4.708;2023-02-10T13:49:51;103571.78;;;17.15;100.00
19831;BME280;10076;52.008;4.708;2023-02-10T13:52:21;103576.31;;;16.65;100.00
19831;BME280;10076;52.008;4.708;2023-02-10T13:55:23;103574.59;;;16.48;100.00
19831;BME280;10076;52.008;4.708;2023-02-10T13:57:56;103569.22;;;17.14;100.00
19831;BME280;10076;52.008;4.708;2023-02-10T14:00:25;103572.22;;;17.55;100.00
19831;BME280;10076;52.008;4.708;2023-02-10T14:05:36;103563.53;;;16.55;100.00
19831;BME280;10076;52.008;4.708;2023-02-10T14:08:26;103565.78;;;16.62;100.00
19831;BME280;10076;52.008;4.708;2023-02-10T14:11:25;103563.63;;;16.37;100.00
19831;BME280;10076;52.008;4.708;2023-02-10T14:13:58;103545.44;;;15.92;100.00
19831;BME280;10076;52.008;4.708;2023-02-10T14:16:29;103547.75;;;15.10;100.00
19831;BME280;10076;52.008;4.708;2023-02-10T14:19:00;103548.03;;;14.65;100.00
19831;BME280;10076;52.008;4.708;2023-02-10T14:21:40;103540.38;;;14.78;100.00
19831;BME280;10076;52.008;4.708;2023-02-10T14:24:12;103541.75;;;15.78;100.00
19831;BME280;10076;52.008;4.708;2023-02-10T14:26:42;103534.19;;;16.04;100.00